Danubia — A8HZ9 — position and weather

sailwx.info

Track history (hours):
 
Tides and Currents Weather Stations Pressure Air Temp Water Temp Dewpoint Dewpoint Depression Visibility Wind Speed Wind Dir Waves Ship Positions

Danubia

Last reported at 2017-Sep-29 08:33 UTC. Time now 2017-Oct-19 18:24 UTC.
Position N 28°58' W 116°48'.
Warning: this ship's position is 20 days out of date.

Length 229 m; draft 8 m.

Type: Ship. MMSI: 636090950.

Date/timePositionNaut miles runAvg speedWind from/ knotsBaromVisibWave heightAir tempDewpointWater temp
2017-Sep-29 08:33N 28°58' W 116°48'512.6
2017-Sep-29 08:11N 29°02' W 116°51'212.6
2017-Sep-29 08:00N 29°04' W 116°52'612.6
2017-Sep-29 07:30N 29°09' W 116°57'2212.9
2017-Sep-29 05:47N 29°26' W 117°12'512.8
2017-Sep-29 05:26N 29°30' W 117°15'2212.8
2017-Sep-29 03:43N 29°49' W 117°26'312.7
2017-Sep-29 03:30N 29°52' W 117°28'1612.3
2017-Sep-29 02:10N 30°07' W 117°36'612.1
2017-Sep-29 01:39N 30°12' W 117°39'512.1
2017-Sep-29 01:14N 30°17' W 117°41'312.0
2017-Sep-29 00:59N 30°20' W 117°42'612.3
2017-Sep-29 00:30N 30°25' W 117°45'612.2
2017-Sep-29 00:00N 30°31' W 117°48'612.2
2017-Sep-28 23:30N 30°36' W 117°51'612.2
2017-Sep-28 23:00N 30°41' W 117°55'612.3
2017-Sep-28 22:30N 30°47' W 117°58'612.3
2017-Sep-28 22:00N 30°52' W 118°01'612.2
2017-Sep-28 21:30N 30°58' W 118°04'612.4
2017-Sep-28 21:00N 31°04' W 118°07'612.3
2017-Sep-28 20:30N 31°09' W 118°10'612.2
2017-Sep-28 20:00N 31°15' W 118°13'611.5
2017-Sep-28 19:30N 31°20' W 118°16'510.8
2017-Sep-28 19:00N 31°25' W 118°18'510.8
2017-Sep-28 18:30N 31°30' W 118°21'611.9
2017-Sep-28 18:00N 31°36' W 118°23'612.1
2017-Sep-28 17:30N 31°42' W 118°24'713.4
2017-Sep-28 17:00N 31°48' W 118°25'714.0
2017-Sep-28 16:30N 31°55' W 118°27'612.6
2017-Sep-28 16:00N 32°01' W 118°27'713.2
2017-Sep-28 15:30N 32°08' W 118°27'713.5
2017-Sep-28 15:00N 32°15' W 118°27'612.6
2017-Sep-28 14:30N 32°21' W 118°27'612.3
2017-Sep-28 14:00N 32°27' W 118°27'611.8
2017-Sep-28 13:30N 32°33' W 118°26'612.0
2017-Sep-28 13:00N 32°37' W 118°21'611.8
2017-Sep-28 12:30N 32°40' W 118°14'611.8
2017-Sep-28 12:00N 32°45' W 118°13'612.0
2017-Sep-28 11:30N 32°51' W 118°12'612.1
2017-Sep-28 11:00N 32°57' W 118°11'611.9
2017-Sep-28 10:30N 33°03' W 118°09'612.0
2017-Sep-28 10:00N 33°09' W 118°08'612.1
2017-Sep-28 09:30N 33°15' W 118°07'611.6
2017-Sep-28 09:00N 33°21' W 118°07'612.1
2017-Sep-28 08:30N 33°27' W 118°10'612.2
2017-Sep-28 08:00N 33°32' W 118°12'612.2
2017-Sep-28 07:30N 33°38' W 118°14'4 8.8
2017-Sep-28 07:00N 33°43' W 118°15'3 5.1
2017-Sep-28 06:30N 33°45' W 118°16'1 1.6
2017-Sep-28 05:58N 33°46' W 118°16'0 0.0
2017-Sep-28 05:27N 33°46' W 118°16'0 0.0
2017-Sep-28 04:51N 33°46' W 118°16'0 0.0
2017-Sep-28 04:31N 33°46' W 118°16'0 0.0
2017-Sep-28 03:51N 33°46' W 118°16'0 0.0
2017-Sep-28 03:28N 33°46' W 118°16'0 0.0
2017-Sep-28 02:45N 33°46' W 118°16'0 0.0
2017-Sep-28 02:28N 33°46' W 118°16'0 0.0
2017-Sep-28 01:57N 33°46' W 118°16'0 0.0
2017-Sep-28 01:27N 33°46' W 118°16'0 0.0
2017-Sep-28 00:51N 33°46' W 118°16'0 0.0
2017-Sep-28 00:21N 33°46' W 118°16'0 0.0
2017-Sep-28 00:01N 33°46' W 118°16'0 0.0
2017-Sep-27 23:30N 33°46' W 118°16'0 0.0
2017-Sep-27 22:57N 33°46' W 118°16'0 0.0
2017-Sep-27 22:27N 33°46' W 118°16'0 0.0
2017-Sep-27 21:58N 33°46' W 118°16'0 0.0
2017-Sep-27 21:27N 33°46' W 118°16'0 0.0
2017-Sep-27 20:57N 33°46' W 118°16'0 0.0
2017-Sep-27 20:21N 33°46' W 118°16'0 0.0
2017-Sep-27 19:58N 33°46' W 118°16'0 0.0
2017-Sep-27 19:28N 33°46' W 118°16'0 0.0
2017-Sep-27 18:57N 33°46' W 118°16'0 0.0
2017-Sep-27 18:27N 33°46' W 118°16'0 0.0
2017-Sep-27 17:57N 33°46' W 118°16'0 0.0
2017-Sep-27 17:27N 33°46' W 118°16'0 0.0
2017-Sep-27 16:51N 33°46' W 118°16'0 0.0
2017-Sep-27 16:27N 33°46' W 118°16'0 0.0
2017-Sep-27 13:45N 33°46' W 118°16'0 0.0
2017-Sep-27 13:21N 33°46' W 118°16'0 0.0
2017-Sep-27 11:03N 33°46' W 118°16'0 0.0
2017-Sep-27 10:57N 33°46' W 118°16'0 0.0
2017-Sep-27 10:21N 33°46' W 118°16'0 0.0
2017-Sep-27 10:00N 33°46' W 118°16'0 0.0
2017-Sep-27 09:21N 33°46' W 118°16'0 0.0
2017-Sep-27 07:27N 33°46' W 118°16'0 0.0
2017-Sep-27 07:00N 33°46' W 118°16'0 0.0
2017-Sep-27 06:27N 33°46' W 118°16'0 0.0
2017-Sep-27 05:45N 33°46' W 118°16'0 0.0
2017-Sep-27 05:27N 33°46' W 118°16'0 0.0
2017-Sep-27 04:45N 33°46' W 118°16'0 0.0
2017-Sep-27 04:27N 33°46' W 118°16'0 0.0
2017-Sep-27 03:45N 33°46' W 118°16'0 0.0
2017-Sep-27 03:30N 33°46' W 118°16'1 1.6
2017-Sep-27 03:00N 33°45' W 118°16'2 4.1
2017-Sep-27 02:30N 33°43' W 118°16'3 5.3
2017-Sep-27 02:00N 33°43' W 118°13'3 5.6
2017-Sep-27 01:30N 33°44' W 118°09'0 0.3
2017-Sep-27 01:00N 33°44' W 118°09'0 0.1
2017-Sep-27 00:30N 33°44' W 118°09'0 0.0
2017-Sep-27 00:00N 33°44' W 118°09'0 0.0
2017-Sep-26 23:30N 33°44' W 118°09'0 0.0
2017-Sep-26 23:00N 33°44' W 118°09'0 0.0
2017-Sep-26 22:30N 33°44' W 118°09'0 0.0
2017-Sep-26 22:00N 33°44' W 118°09'0 0.0
2017-Sep-26 21:27N 33°44' W 118°09'0 0.0
2017-Sep-26 21:00N 33°44' W 118°09'0 0.0
2017-Sep-26 20:30N 33°44' W 118°09'0 0.0
2017-Sep-26 20:00N 33°44' W 118°09'0 0.0
2017-Sep-26 19:30N 33°44' W 118°09'0 0.1
2017-Sep-26 19:00N 33°44' W 118°09'0 0.1
2017-Sep-26 18:30N 33°44' W 118°09'0 0.1
2017-Sep-26 18:00N 33°44' W 118°09'0 0.1
2017-Sep-26 17:30N 33°44' W 118°09'0 0.1
2017-Sep-26 17:00N 33°44' W 118°09'0 0.1
2017-Sep-26 16:30N 33°44' W 118°09'0 0.0
2017-Sep-26 16:00N 33°44' W 118°09'0 0.0
2017-Sep-26 15:30N 33°44' W 118°09'0 0.0
2017-Sep-26 15:00N 33°44' W 118°09'0 0.0
2017-Sep-26 14:30N 33°44' W 118°09'0 0.0
2017-Sep-26 14:00N 33°44' W 118°09'0 0.0
2017-Sep-26 13:30N 33°44' W 118°09'0 0.0
2017-Sep-26 13:00N 33°44' W 118°09'0 0.0
2017-Sep-26 12:30N 33°44' W 118°09'0 0.0
2017-Sep-26 12:00N 33°44' W 118°09'0 0.0
2017-Sep-26 11:30N 33°44' W 118°09'0 0.0
2017-Sep-26 11:00N 33°44' W 118°09'0 0.0
2017-Sep-26 10:30N 33°44' W 118°09'0 0.0
2017-Sep-26 10:00N 33°44' W 118°09'0 0.0
2017-Sep-26 09:30N 33°44' W 118°09'0 0.0
2017-Sep-26 09:00N 33°44' W 118°09'0 0.0
2017-Sep-26 08:30N 33°44' W 118°09'0 0.1
2017-Sep-26 08:00N 33°44' W 118°09'0 0.1
2017-Sep-26 07:30N 33°44' W 118°09'0 0.1
2017-Sep-26 07:00N 33°44' W 118°09'0 0.1
2017-Sep-26 06:30N 33°44' W 118°09'0 0.1
2017-Sep-26 06:00N 33°44' W 118°09'0 0.1
2017-Sep-26 05:30N 33°44' W 118°09'0 0.1
2017-Sep-26 05:00N 33°44' W 118°09'0 0.1
2017-Sep-26 04:30N 33°44' W 118°09'0 0.0
2017-Sep-26 04:00N 33°44' W 118°09'0 0.0
2017-Sep-26 03:30N 33°44' W 118°09'0 0.0
2017-Sep-26 03:00N 33°44' W 118°09'0 0.0
2017-Sep-26 02:27N 33°44' W 118°09'0 0.0
2017-Sep-26 02:00N 33°44' W 118°09'0 0.0
2017-Sep-26 01:30N 33°44' W 118°09'0 0.0
2017-Sep-26 01:00N 33°44' W 118°09'0 0.0
2017-Sep-26 00:30N 33°44' W 118°09'0 0.2
2017-Sep-26 00:00N 33°44' W 118°09'0 0.0
2017-Sep-25 23:30N 33°44' W 118°09'0 0.0
2017-Sep-25 23:00N 33°44' W 118°09'0 0.0
2017-Sep-25 22:30N 33°44' W 118°09'0 0.0
2017-Sep-25 22:00N 33°44' W 118°09'0 0.0
2017-Sep-25 21:30N 33°44' W 118°09'0 0.1
2017-Sep-25 21:00N 33°44' W 118°09'0 0.0
2017-Sep-25 20:30N 33°44' W 118°09'0 0.0
2017-Sep-25 20:00N 33°44' W 118°09'0 0.1
2017-Sep-25 19:30N 33°44' W 118°09'0 0.1
2017-Sep-25 19:00N 33°44' W 118°09'0 0.0
2017-Sep-25 18:30N 33°44' W 118°09'0 0.1
2017-Sep-25 18:00N 33°44' W 118°09'0 0.0
2017-Sep-25 17:30N 33°44' W 118°09'0 0.1
2017-Sep-25 17:00N 33°44' W 118°09'0 0.1
2017-Sep-25 16:30N 33°44' W 118°09'0 0.1
2017-Sep-25 16:00N 33°44' W 118°09'0 0.0
2017-Sep-25 15:30N 33°44' W 118°09'0 0.1
2017-Sep-25 15:00N 33°44' W 118°09'0 0.1
2017-Sep-25 14:27N 33°44' W 118°09'0 0.1
2017-Sep-25 14:00N 33°44' W 118°09'0 0.0
2017-Sep-25 13:30N 33°44' W 118°09'0 0.0
2017-Sep-25 13:00N 33°44' W 118°09'0 0.0
2017-Sep-25 12:30N 33°44' W 118°09'0 0.0
2017-Sep-25 12:00N 33°44' W 118°09'0 0.0
2017-Sep-25 11:30N 33°44' W 118°09'0 0.0
2017-Sep-25 11:00N 33°44' W 118°09'0 0.0
2017-Sep-25 10:30N 33°44' W 118°09'0 0.1
2017-Sep-25 10:00N 33°44' W 118°09'0 0.1
2017-Sep-25 09:30N 33°44' W 118°09'0 0.1
2017-Sep-25 09:00N 33°44' W 118°09'0 0.0
2017-Sep-25 08:30N 33°44' W 118°09'0 0.0
2017-Sep-25 08:00N 33°44' W 118°09'0 0.0
2017-Sep-25 07:30N 33°44' W 118°09'0 0.0
2017-Sep-25 06:57N 33°44' W 118°09'0 0.0
2017-Sep-25 06:27N 33°44' W 118°09'0 0.0
2017-Sep-25 06:00N 33°44' W 118°09'0 0.1
2017-Sep-25 05:30N 33°44' W 118°09'0 0.1
2017-Sep-25 04:57N 33°44' W 118°09'0 0.1
2017-Sep-25 04:30N 33°44' W 118°09'0 0.2
2017-Sep-25 03:54N 33°44' W 118°09'0 0.0
2017-Sep-25 03:24N 33°44' W 118°09'0 0.1
2017-Sep-25 03:00N 33°44' W 118°09'0 0.1
2017-Sep-25 02:27N 33°44' W 118°09'0 0.0
2017-Sep-25 02:00N 33°44' W 118°09'0 0.0
2017-Sep-25 01:30N 33°44' W 118°09'0 0.1
2017-Sep-25 01:00N 33°44' W 118°09'0 0.2
2017-Sep-25 00:30N 33°44' W 118°09'0 0.0
2017-Sep-25 00:00N 33°44' W 118°09'0 0.0
2017-Sep-24 23:30N 33°44' W 118°09'0 0.0
2017-Sep-24 23:00N 33°44' W 118°09'0 0.0
2017-Sep-24 22:30N 33°44' W 118°09'0 0.1
2017-Sep-24 22:00N 33°44' W 118°09'0 0.0
2017-Sep-24 21:30N 33°44' W 118°09'0 0.0
2017-Sep-24 21:00N 33°44' W 118°09'0 0.0
2017-Sep-24 20:30N 33°44' W 118°09'0 0.0
2017-Sep-24 20:00N 33°44' W 118°09'0 0.0
2017-Sep-24 19:30N 33°44' W 118°09'0 0.1
2017-Sep-24 19:00N 33°44' W 118°09'0 0.0
2017-Sep-24 18:30N 33°44' W 118°09'0 0.2
2017-Sep-24 18:00N 33°44' W 118°09'0 0.1
2017-Sep-24 17:30N 33°44' W 118°09'0 0.1
2017-Sep-24 17:00N 33°44' W 118°09'0 0.0
2017-Sep-24 16:30N 33°44' W 118°09'0 0.0
2017-Sep-24 16:00N 33°44' W 118°09'0 0.0
2017-Sep-24 15:30N 33°44' W 118°09'0 0.0
2017-Sep-24 15:00N 33°44' W 118°09'0 0.0
2017-Sep-24 14:30N 33°44' W 118°09'0 0.0
2017-Sep-24 14:00N 33°44' W 118°09'0 0.1
2017-Sep-24 13:30N 33°44' W 118°09'0 0.1
2017-Sep-24 13:00N 33°44' W 118°09'0 0.1
2017-Sep-24 12:30N 33°44' W 118°09'0 0.0
2017-Sep-24 12:00N 33°44' W 118°09'0 0.0
2017-Sep-24 11:30N 33°44' W 118°09'0 0.0
2017-Sep-24 11:00N 33°44' W 118°09'0 0.0
2017-Sep-24 10:30N 33°44' W 118°09'0 0.0
2017-Sep-24 10:00N 33°44' W 118°09'0 0.1
2017-Sep-24 09:30N 33°44' W 118°09'0 0.0
2017-Sep-24 09:00N 33°44' W 118°09'0 0.1
2017-Sep-24 08:30N 33°44' W 118°09'0 0.1
2017-Sep-24 08:00N 33°44' W 118°09'0 0.0
2017-Sep-24 07:30N 33°44' W 118°09'0 0.0
2017-Sep-24 07:00N 33°44' W 118°09'0 0.0
2017-Sep-24 06:30N 33°44' W 118°09'0 0.0
2017-Sep-24 06:00N 33°44' W 118°09'0 0.1
2017-Sep-24 05:30N 33°44' W 118°09'0 0.0
2017-Sep-24 05:00N 33°44' W 118°09'0 0.0
2017-Sep-24 04:30N 33°44' W 118°09'0 0.0
2017-Sep-24 04:00N 33°44' W 118°09'0 0.1
2017-Sep-24 03:30N 33°44' W 118°09'0 0.1
2017-Sep-24 03:00N 33°44' W 118°09'0 0.1
2017-Sep-24 02:30N 33°44' W 118°09'0 0.1
2017-Sep-24 02:00N 33°44' W 118°09'0 0.0
2017-Sep-24 01:30N 33°44' W 118°09'0 0.0
2017-Sep-24 01:00N 33°44' W 118°09'0 0.1
2017-Sep-24 00:30N 33°44' W 118°09'0 0.1
2017-Sep-24 00:00N 33°44' W 118°09'0 0.0
2017-Sep-23 23:27N 33°44' W 118°09'0 0.1
2017-Sep-23 23:00N 33°44' W 118°09'0 0.0
2017-Sep-23 22:30N 33°44' W 118°09'0 0.1
2017-Sep-23 22:00N 33°44' W 118°09'0 0.0
2017-Sep-23 21:30N 33°44' W 118°09'0 0.0
2017-Sep-23 21:00N 33°44' W 118°09'0 0.1
2017-Sep-23 20:27N 33°44' W 118°09'0 0.1
2017-Sep-23 20:00N 33°44' W 118°09'0 0.0
2017-Sep-22 01:05N 33°44' W 118°09'0 0.0
2017-Sep-22 00:53N 33°44' W 118°09'0 0.0
2017-Sep-22 00:02N 33°44' W 118°09'0 0.3
2017-Sep-21 23:50N 33°44' W 118°09'0 0.0
2017-Sep-21 23:26N 33°44' W 118°09'0 0.1
2017-Sep-21 22:56N 33°44' W 118°09'0 0.1
2017-Sep-21 22:26N 33°44' W 118°09'0 0.0
2017-Sep-21 20:44N 33°44' W 118°09'0 0.0
2017-Sep-21 20:26N 33°44' W 118°09'0 0.0
2017-Sep-21 19:56N 33°44' W 118°09'0 0.1
2017-Sep-21 19:26N 33°44' W 118°09'0 0.1
2017-Sep-21 18:56N 33°44' W 118°09'0 0.2
2017-Sep-21 18:26N 33°44' W 118°09'0 0.0
2017-Sep-21 17:53N 33°44' W 118°09'0 0.0
2017-Sep-21 17:29N 33°44' W 118°09'0 0.1
2017-Sep-21 16:56N 33°44' W 118°09'0 0.0
2017-Sep-21 16:29N 33°44' W 118°09'0 0.1
2017-Sep-21 15:56N 33°44' W 118°09'0 0.1
2017-Sep-21 15:29N 33°44' W 118°09'0 0.1
2017-Sep-21 14:47N 33°44' W 118°09'0 0.1
2017-Sep-21 14:23N 33°44' W 118°09'0 0.0
2017-Sep-21 14:00N 33°44' W 118°09'0 0.0
2017-Sep-21 13:29N 33°44' W 118°09'0 0.1
2017-Sep-21 12:56N 33°44' W 118°09'0 0.1
2017-Sep-21 12:26N 33°44' W 118°09'0 0.0
2017-Sep-21 11:59N 33°44' W 118°09'0 0.1
2017-Sep-21 11:29N 33°44' W 118°09'0 0.0
2017-Sep-21 10:50N 33°44' W 118°09'0 0.0
2017-Sep-21 10:17N 33°44' W 118°09'0 0.0
2017-Sep-21 09:59N 33°44' W 118°09'0 0.1
2017-Sep-21 09:29N 33°44' W 118°09'0 0.0
2017-Sep-21 08:59N 33°44' W 118°09'0 0.0
2017-Sep-21 08:29N 33°44' W 118°09'0 0.1
2017-Sep-21 07:53N 33°44' W 118°09'0 0.1
2017-Sep-21 07:26N 33°44' W 118°09'0 0.1
2017-Sep-21 06:47N 33°44' W 118°09'0 0.0
2017-Sep-21 06:23N 33°44' W 118°09'0 0.1
2017-Sep-21 05:53N 33°44' W 118°09'0 0.0
2017-Sep-21 05:29N 33°44' W 118°09'0 0.2
2017-Sep-21 04:59N 33°44' W 118°09'0 0.0
2017-Sep-21 04:29N 33°44' W 118°09'0 0.0
2017-Sep-21 03:53N 33°44' W 118°09'0 0.0
2017-Sep-21 03:29N 33°44' W 118°09'0 0.1
2017-Sep-21 02:59N 33°44' W 118°09'0 0.1
2017-Sep-21 02:29N 33°44' W 118°09'0 0.0
2017-Sep-21 01:59N 33°44' W 118°09'0 0.0
2017-Sep-21 01:29N 33°44' W 118°09'0 0.0
2017-Sep-21 00:53N 33°44' W 118°09'0 0.1
2017-Sep-21 00:29N 33°44' W 118°09'0 0.0
2017-Sep-20 23:59N 33°44' W 118°09'0 0.0
2017-Sep-20 23:29N 33°44' W 118°09'0 0.0
2017-Sep-20 22:59N 33°44' W 118°09'0 0.0
2017-Sep-20 22:23N 33°44' W 118°09'0 0.0
2017-Sep-20 21:50N 33°44' W 118°09'0 0.0
2017-Sep-20 21:29N 33°44' W 118°09'0 0.0
2017-Sep-20 20:53N 33°44' W 118°09'0 0.0
2017-Sep-20 20:29N 33°44' W 118°09'0 0.0
2017-Sep-20 19:59N 33°44' W 118°09'0 0.0
2017-Sep-20 19:23N 33°44' W 118°09'0 0.1
2017-Sep-20 18:59N 33°44' W 118°09'0 0.0
2017-Sep-20 18:29N 33°44' W 118°09'0 0.0
2017-Sep-20 17:59N 33°44' W 118°09'0 0.1
2017-Sep-20 17:29N 33°44' W 118°09'0 0.1
2017-Sep-20 16:59N 33°44' W 118°09'0 0.1
2017-Sep-20 16:29N 33°44' W 118°09'0 0.1
2017-Sep-20 15:59N 33°44' W 118°09'0 0.1
2017-Sep-20 12:11N 33°44' W 118°09'0 0.1
2017-Sep-20 11:53N 33°44' W 118°09'0 0.1
2017-Sep-20 11:17N 33°44' W 118°09'0 0.0
2017-Sep-20 10:59N 33°44' W 118°09'0 0.1
2017-Sep-20 10:23N 33°44' W 118°09'0 0.0
2017-Sep-20 09:53N 33°44' W 118°09'0 0.1
2017-Sep-20 09:29N 33°44' W 118°09'0 0.1
2017-Sep-20 08:59N 33°44' W 118°09'0 0.1
2017-Sep-20 08:29N 33°44' W 118°09'0 0.1
2017-Sep-20 07:59N 33°44' W 118°09'0 0.1
2017-Sep-20 07:26N 33°44' W 118°09'0 0.0
2017-Sep-20 06:56N 33°44' W 118°09'2 3.6
2017-Sep-20 06:30N 33°44' W 118°11'4 7.6
2017-Sep-20 06:00N 33°43' W 118°16'2 5.0
2017-Sep-20 05:30N 33°45' W 118°16'0 0.2
2017-Sep-20 03:37N 33°46' W 118°16'0 0.0
2017-Sep-20 01:31N 33°46' W 118°16'0 0.1
2017-Sep-20 01:25N 33°46' W 118°16'0 0.0
2017-Sep-20 00:31N 33°46' W 118°16'0 0.0
2017-Sep-20 00:19N 33°46' W 118°16'0 0.0
2017-Sep-19 23:55N 33°46' W 118°16'0 0.0
2017-Sep-19 23:13N 33°46' W 118°16'0 0.0
2017-Sep-19 22:25N 33°46' W 118°16'0 0.0
2017-Sep-19 21:07N 33°46' W 118°16'0 0.0
2017-Sep-19 20:55N 33°46' W 118°16'0 0.0
2017-Sep-19 20:25N 33°46' W 118°16'0 0.0
2017-Sep-19 18:07N 33°46' W 118°16'  
Track history (hours):
 
Tides and Currents Weather Stations Pressure Air Temp Water Temp Dewpoint Dewpoint Depression Visibility Wind Speed Wind Dir Waves Ship Positions

Danubia

Last reported at 2017-Sep-29 08:33 UTC. Time now 2017-Oct-19 18:24 UTC.
Position N 28°58' W 116°48'.
Warning: this ship's position is 20 days out of date.

Length 229 m; draft 8 m.

Type: Ship. MMSI: 636090950.

Date/timePositionNaut miles runAvg speedWind from/ knotsBaromVisibWave heightAir tempDewpointWater temp
2017-Sep-29 08:33N 28°58' W 116°48'512.6
2017-Sep-29 08:11N 29°02' W 116°51'212.6
2017-Sep-29 08:00N 29°04' W 116°52'612.6
2017-Sep-29 07:30N 29°09' W 116°57'2212.9
2017-Sep-29 05:47N 29°26' W 117°12'512.8
2017-Sep-29 05:26N 29°30' W 117°15'2212.8
2017-Sep-29 03:43N 29°49' W 117°26'312.7
2017-Sep-29 03:30N 29°52' W 117°28'1612.3
2017-Sep-29 02:10N 30°07' W 117°36'612.1
2017-Sep-29 01:39N 30°12' W 117°39'512.1
2017-Sep-29 01:14N 30°17' W 117°41'312.0
2017-Sep-29 00:59N 30°20' W 117°42'612.3
2017-Sep-29 00:30N 30°25' W 117°45'612.2
2017-Sep-29 00:00N 30°31' W 117°48'612.2
2017-Sep-28 23:30N 30°36' W 117°51'612.2
2017-Sep-28 23:00N 30°41' W 117°55'612.3
2017-Sep-28 22:30N 30°47' W 117°58'612.3
2017-Sep-28 22:00N 30°52' W 118°01'612.2
2017-Sep-28 21:30N 30°58' W 118°04'612.4
2017-Sep-28 21:00N 31°04' W 118°07'612.3
2017-Sep-28 20:30N 31°09' W 118°10'612.2
2017-Sep-28 20:00N 31°15' W 118°13'611.5
2017-Sep-28 19:30N 31°20' W 118°16'510.8
2017-Sep-28 19:00N 31°25' W 118°18'510.8
2017-Sep-28 18:30N 31°30' W 118°21'611.9
2017-Sep-28 18:00N 31°36' W 118°23'612.1
2017-Sep-28 17:30N 31°42' W 118°24'713.4
2017-Sep-28 17:00N 31°48' W 118°25'714.0
2017-Sep-28 16:30N 31°55' W 118°27'612.6
2017-Sep-28 16:00N 32°01' W 118°27'713.2
2017-Sep-28 15:30N 32°08' W 118°27'713.5
2017-Sep-28 15:00N 32°15' W 118°27'612.6
2017-Sep-28 14:30N 32°21' W 118°27'612.3
2017-Sep-28 14:00N 32°27' W 118°27'611.8
2017-Sep-28 13:30N 32°33' W 118°26'612.0
2017-Sep-28 13:00N 32°37' W 118°21'611.8
2017-Sep-28 12:30N 32°40' W 118°14'611.8
2017-Sep-28 12:00N 32°45' W 118°13'612.0
2017-Sep-28 11:30N 32°51' W 118°12'612.1
2017-Sep-28 11:00N 32°57' W 118°11'611.9
2017-Sep-28 10:30N 33°03' W 118°09'612.0
2017-Sep-28 10:00N 33°09' W 118°08'612.1
2017-Sep-28 09:30N 33°15' W 118°07'611.6
2017-Sep-28 09:00N 33°21' W 118°07'612.1
2017-Sep-28 08:30N 33°27' W 118°10'612.2
2017-Sep-28 08:00N 33°32' W 118°12'612.2
2017-Sep-28 07:30N 33°38' W 118°14'4 8.8
2017-Sep-28 07:00N 33°43' W 118°15'3 5.1
2017-Sep-28 06:30N 33°45' W 118°16'1 1.6
2017-Sep-28 05:58N 33°46' W 118°16'0 0.0
2017-Sep-28 05:27N 33°46' W 118°16'0 0.0
2017-Sep-28 04:51N 33°46' W 118°16'0 0.0
2017-Sep-28 04:31N 33°46' W 118°16'0 0.0
2017-Sep-28 03:51N 33°46' W 118°16'0 0.0
2017-Sep-28 03:28N 33°46' W 118°16'0 0.0
2017-Sep-28 02:45N 33°46' W 118°16'0 0.0
2017-Sep-28 02:28N 33°46' W 118°16'0 0.0
2017-Sep-28 01:57N 33°46' W 118°16'0 0.0
2017-Sep-28 01:27N 33°46' W 118°16'0 0.0
2017-Sep-28 00:51N 33°46' W 118°16'0 0.0
2017-Sep-28 00:21N 33°46' W 118°16'0 0.0
2017-Sep-28 00:01N 33°46' W 118°16'0 0.0
2017-Sep-27 23:30N 33°46' W 118°16'0 0.0
2017-Sep-27 22:57N 33°46' W 118°16'0 0.0
2017-Sep-27 22:27N 33°46' W 118°16'0 0.0
2017-Sep-27 21:58N 33°46' W 118°16'0 0.0
2017-Sep-27 21:27N 33°46' W 118°16'0 0.0
2017-Sep-27 20:57N 33°46' W 118°16'0 0.0
2017-Sep-27 20:21N 33°46' W 118°16'0 0.0
2017-Sep-27 19:58N 33°46' W 118°16'0 0.0
2017-Sep-27 19:28N 33°46' W 118°16'0 0.0
2017-Sep-27 18:57N 33°46' W 118°16'0 0.0
2017-Sep-27 18:27N 33°46' W 118°16'0 0.0
2017-Sep-27 17:57N 33°46' W 118°16'0 0.0
2017-Sep-27 17:27N 33°46' W 118°16'0 0.0
2017-Sep-27 16:51N 33°46' W 118°16'0 0.0
2017-Sep-27 16:27N 33°46' W 118°16'0 0.0
2017-Sep-27 13:45N 33°46' W 118°16'0 0.0
2017-Sep-27 13:21N 33°46' W 118°16'0 0.0
2017-Sep-27 11:03N 33°46' W 118°16'0 0.0
2017-Sep-27 10:57N 33°46' W 118°16'0 0.0
2017-Sep-27 10:21N 33°46' W 118°16'0 0.0
2017-Sep-27 10:00N 33°46' W 118°16'0 0.0
2017-Sep-27 09:21N 33°46' W 118°16'0 0.0
2017-Sep-27 07:27N 33°46' W 118°16'0 0.0
2017-Sep-27 07:00N 33°46' W 118°16'0 0.0
2017-Sep-27 06:27N 33°46' W 118°16'0 0.0
2017-Sep-27 05:45N 33°46' W 118°16'0 0.0
2017-Sep-27 05:27N 33°46' W 118°16'0 0.0
2017-Sep-27 04:45N 33°46' W 118°16'0 0.0
2017-Sep-27 04:27N 33°46' W 118°16'0 0.0
2017-Sep-27 03:45N 33°46' W 118°16'0 0.0
2017-Sep-27 03:30N 33°46' W 118°16'1 1.6
2017-Sep-27 03:00N 33°45' W 118°16'2 4.1
2017-Sep-27 02:30N 33°43' W 118°16'3 5.3
2017-Sep-27 02:00N 33°43' W 118°13'3 5.6
2017-Sep-27 01:30N 33°44' W 118°09'0 0.3
2017-Sep-27 01:00N 33°44' W 118°09'0 0.1
2017-Sep-27 00:30N 33°44' W 118°09'0 0.0
2017-Sep-27 00:00N 33°44' W 118°09'0 0.0
2017-Sep-26 23:30N 33°44' W 118°09'0 0.0
2017-Sep-26 23:00N 33°44' W 118°09'0 0.0
2017-Sep-26 22:30N 33°44' W 118°09'0 0.0
2017-Sep-26 22:00N 33°44' W 118°09'0 0.0
2017-Sep-26 21:27N 33°44' W 118°09'0 0.0
2017-Sep-26 21:00N 33°44' W 118°09'0 0.0
2017-Sep-26 20:30N 33°44' W 118°09'0 0.0
2017-Sep-26 20:00N 33°44' W 118°09'0 0.0
2017-Sep-26 19:30N 33°44' W 118°09'0 0.1
2017-Sep-26 19:00N 33°44' W 118°09'0 0.1
2017-Sep-26 18:30N 33°44' W 118°09'0 0.1
2017-Sep-26 18:00N 33°44' W 118°09'0 0.1
2017-Sep-26 17:30N 33°44' W 118°09'0 0.1
2017-Sep-26 17:00N 33°44' W 118°09'0 0.1
2017-Sep-26 16:30N 33°44' W 118°09'0 0.0
2017-Sep-26 16:00N 33°44' W 118°09'0 0.0
2017-Sep-26 15:30N 33°44' W 118°09'0 0.0
2017-Sep-26 15:00N 33°44' W 118°09'0 0.0
2017-Sep-26 14:30N 33°44' W 118°09'0 0.0
2017-Sep-26 14:00N 33°44' W 118°09'0 0.0
2017-Sep-26 13:30N 33°44' W 118°09'0 0.0
2017-Sep-26 13:00N 33°44' W 118°09'0 0.0
2017-Sep-26 12:30N 33°44' W 118°09'0 0.0
2017-Sep-26 12:00N 33°44' W 118°09'0 0.0
2017-Sep-26 11:30N 33°44' W 118°09'0 0.0
2017-Sep-26 11:00N 33°44' W 118°09'0 0.0
2017-Sep-26 10:30N 33°44' W 118°09'0 0.0
2017-Sep-26 10:00N 33°44' W 118°09'0 0.0
2017-Sep-26 09:30N 33°44' W 118°09'0 0.0
2017-Sep-26 09:00N 33°44' W 118°09'0 0.0
2017-Sep-26 08:30N 33°44' W 118°09'0 0.1
2017-Sep-26 08:00N 33°44' W 118°09'0 0.1
2017-Sep-26 07:30N 33°44' W 118°09'0 0.1
2017-Sep-26 07:00N 33°44' W 118°09'0 0.1
2017-Sep-26 06:30N 33°44' W 118°09'0 0.1
2017-Sep-26 06:00N 33°44' W 118°09'0 0.1
2017-Sep-26 05:30N 33°44' W 118°09'0 0.1
2017-Sep-26 05:00N 33°44' W 118°09'0 0.1
2017-Sep-26 04:30N 33°44' W 118°09'0 0.0
2017-Sep-26 04:00N 33°44' W 118°09'0 0.0
2017-Sep-26 03:30N 33°44' W 118°09'0 0.0
2017-Sep-26 03:00N 33°44' W 118°09'0 0.0
2017-Sep-26 02:27N 33°44' W 118°09'0 0.0
2017-Sep-26 02:00N 33°44' W 118°09'0 0.0
2017-Sep-26 01:30N 33°44' W 118°09'0 0.0
2017-Sep-26 01:00N 33°44' W 118°09'0 0.0
2017-Sep-26 00:30N 33°44' W 118°09'0 0.2
2017-Sep-26 00:00N 33°44' W 118°09'0 0.0
2017-Sep-25 23:30N 33°44' W 118°09'0 0.0
2017-Sep-25 23:00N 33°44' W 118°09'0 0.0
2017-Sep-25 22:30N 33°44' W 118°09'0 0.0
2017-Sep-25 22:00N 33°44' W 118°09'0 0.0
2017-Sep-25 21:30N 33°44' W 118°09'0 0.1
2017-Sep-25 21:00N 33°44' W 118°09'0 0.0
2017-Sep-25 20:30N 33°44' W 118°09'0 0.0
2017-Sep-25 20:00N 33°44' W 118°09'0 0.1
2017-Sep-25 19:30N 33°44' W 118°09'0 0.1
2017-Sep-25 19:00N 33°44' W 118°09'0 0.0
2017-Sep-25 18:30N 33°44' W 118°09'0 0.1
2017-Sep-25 18:00N 33°44' W 118°09'0 0.0
2017-Sep-25 17:30N 33°44' W 118°09'0 0.1
2017-Sep-25 17:00N 33°44' W 118°09'0 0.1
2017-Sep-25 16:30N 33°44' W 118°09'0 0.1
2017-Sep-25 16:00N 33°44' W 118°09'0 0.0
2017-Sep-25 15:30N 33°44' W 118°09'0 0.1
2017-Sep-25 15:00N 33°44' W 118°09'0 0.1
2017-Sep-25 14:27N 33°44' W 118°09'0 0.1
2017-Sep-25 14:00N 33°44' W 118°09'0 0.0
2017-Sep-25 13:30N 33°44' W 118°09'0 0.0
2017-Sep-25 13:00N 33°44' W 118°09'0 0.0
2017-Sep-25 12:30N 33°44' W 118°09'0 0.0
2017-Sep-25 12:00N 33°44' W 118°09'0 0.0
2017-Sep-25 11:30N 33°44' W 118°09'0 0.0
2017-Sep-25 11:00N 33°44' W 118°09'0 0.0
2017-Sep-25 10:30N 33°44' W 118°09'0 0.1
2017-Sep-25 10:00N 33°44' W 118°09'0 0.1
2017-Sep-25 09:30N 33°44' W 118°09'0 0.1
2017-Sep-25 09:00N 33°44' W 118°09'0 0.0
2017-Sep-25 08:30N 33°44' W 118°09'0 0.0
2017-Sep-25 08:00N 33°44' W 118°09'0 0.0
2017-Sep-25 07:30N 33°44' W 118°09'0 0.0
2017-Sep-25 06:57N 33°44' W 118°09'0 0.0
2017-Sep-25 06:27N 33°44' W 118°09'0 0.0
2017-Sep-25 06:00N 33°44' W 118°09'0 0.1
2017-Sep-25 05:30N 33°44' W 118°09'0 0.1
2017-Sep-25 04:57N 33°44' W 118°09'0 0.1
2017-Sep-25 04:30N 33°44' W 118°09'0 0.2
2017-Sep-25 03:54N 33°44' W 118°09'0 0.0
2017-Sep-25 03:24N 33°44' W 118°09'0 0.1
2017-Sep-25 03:00N 33°44' W 118°09'0 0.1
2017-Sep-25 02:27N 33°44' W 118°09'0 0.0
2017-Sep-25 02:00N 33°44' W 118°09'0 0.0
2017-Sep-25 01:30N 33°44' W 118°09'0 0.1
2017-Sep-25 01:00N 33°44' W 118°09'0 0.2
2017-Sep-25 00:30N 33°44' W 118°09'0 0.0
2017-Sep-25 00:00N 33°44' W 118°09'0 0.0
2017-Sep-24 23:30N 33°44' W 118°09'0 0.0
2017-Sep-24 23:00N 33°44' W 118°09'0 0.0
2017-Sep-24 22:30N 33°44' W 118°09'0 0.1
2017-Sep-24 22:00N 33°44' W 118°09'0 0.0
2017-Sep-24 21:30N 33°44' W 118°09'0 0.0
2017-Sep-24 21:00N 33°44' W 118°09'0 0.0
2017-Sep-24 20:30N 33°44' W 118°09'0 0.0
2017-Sep-24 20:00N 33°44' W 118°09'0 0.0
2017-Sep-24 19:30N 33°44' W 118°09'0 0.1
2017-Sep-24 19:00N 33°44' W 118°09'0 0.0
2017-Sep-24 18:30N 33°44' W 118°09'0 0.2
2017-Sep-24 18:00N 33°44' W 118°09'0 0.1
2017-Sep-24 17:30N 33°44' W 118°09'0 0.1
2017-Sep-24 17:00N 33°44' W 118°09'0 0.0
2017-Sep-24 16:30N 33°44' W 118°09'0 0.0
2017-Sep-24 16:00N 33°44' W 118°09'0 0.0
2017-Sep-24 15:30N 33°44' W 118°09'0 0.0
2017-Sep-24 15:00N 33°44' W 118°09'0 0.0
2017-Sep-24 14:30N 33°44' W 118°09'0 0.0
2017-Sep-24 14:00N 33°44' W 118°09'0 0.1
2017-Sep-24 13:30N 33°44' W 118°09'0 0.1
2017-Sep-24 13:00N 33°44' W 118°09'0 0.1
2017-Sep-24 12:30N 33°44' W 118°09'0 0.0
2017-Sep-24 12:00N 33°44' W 118°09'0 0.0
2017-Sep-24 11:30N 33°44' W 118°09'0 0.0
2017-Sep-24 11:00N 33°44' W 118°09'0 0.0
2017-Sep-24 10:30N 33°44' W 118°09'0 0.0
2017-Sep-24 10:00N 33°44' W 118°09'0 0.1
2017-Sep-24 09:30N 33°44' W 118°09'0 0.0
2017-Sep-24 09:00N 33°44' W 118°09'0 0.1
2017-Sep-24 08:30N 33°44' W 118°09'0 0.1
2017-Sep-24 08:00N 33°44' W 118°09'0 0.0
2017-Sep-24 07:30N 33°44' W 118°09'0 0.0
2017-Sep-24 07:00N 33°44' W 118°09'0 0.0
2017-Sep-24 06:30N 33°44' W 118°09'0 0.0
2017-Sep-24 06:00N 33°44' W 118°09'0 0.1
2017-Sep-24 05:30N 33°44' W 118°09'0 0.0
2017-Sep-24 05:00N 33°44' W 118°09'0 0.0
2017-Sep-24 04:30N 33°44' W 118°09'0 0.0
2017-Sep-24 04:00N 33°44' W 118°09'0 0.1
2017-Sep-24 03:30N 33°44' W 118°09'0 0.1
2017-Sep-24 03:00N 33°44' W 118°09'0 0.1
2017-Sep-24 02:30N 33°44' W 118°09'0 0.1
2017-Sep-24 02:00N 33°44' W 118°09'0 0.0
2017-Sep-24 01:30N 33°44' W 118°09'0 0.0
2017-Sep-24 01:00N 33°44' W 118°09'0 0.1
2017-Sep-24 00:30N 33°44' W 118°09'0 0.1
2017-Sep-24 00:00N 33°44' W 118°09'0 0.0
2017-Sep-23 23:27N 33°44' W 118°09'0 0.1
2017-Sep-23 23:00N 33°44' W 118°09'0 0.0
2017-Sep-23 22:30N 33°44' W 118°09'0 0.1
2017-Sep-23 22:00N 33°44' W 118°09'0 0.0
2017-Sep-23 21:30N 33°44' W 118°09'0 0.0
2017-Sep-23 21:00N 33°44' W 118°09'0 0.1
2017-Sep-23 20:27N 33°44' W 118°09'0 0.1
2017-Sep-23 20:00N 33°44' W 118°09'0 0.0
2017-Sep-22 01:05N 33°44' W 118°09'0 0.0
2017-Sep-22 00:53N 33°44' W 118°09'0 0.0
2017-Sep-22 00:02N 33°44' W 118°09'0 0.3
2017-Sep-21 23:50N 33°44' W 118°09'0 0.0
2017-Sep-21 23:26N 33°44' W 118°09'0 0.1
2017-Sep-21 22:56N 33°44' W 118°09'0 0.1
2017-Sep-21 22:26N 33°44' W 118°09'0 0.0
2017-Sep-21 20:44N 33°44' W 118°09'0 0.0
2017-Sep-21 20:26N 33°44' W 118°09'0 0.0
2017-Sep-21 19:56N 33°44' W 118°09'0 0.1
2017-Sep-21 19:26N 33°44' W 118°09'0 0.1
2017-Sep-21 18:56N 33°44' W 118°09'0 0.2
2017-Sep-21 18:26N 33°44' W 118°09'0 0.0
2017-Sep-21 17:53N 33°44' W 118°09'0 0.0
2017-Sep-21 17:29N 33°44' W 118°09'0 0.1
2017-Sep-21 16:56N 33°44' W 118°09'0 0.0
2017-Sep-21 16:29N 33°44' W 118°09'0 0.1
2017-Sep-21 15:56N 33°44' W 118°09'0 0.1
2017-Sep-21 15:29N 33°44' W 118°09'0 0.1
2017-Sep-21 14:47N 33°44' W 118°09'0 0.1
2017-Sep-21 14:23N 33°44' W 118°09'0 0.0
2017-Sep-21 14:00N 33°44' W 118°09'0 0.0
2017-Sep-21 13:29N 33°44' W 118°09'0 0.1
2017-Sep-21 12:56N 33°44' W 118°09'0 0.1
2017-Sep-21 12:26N 33°44' W 118°09'0 0.0
2017-Sep-21 11:59N 33°44' W 118°09'0 0.1
2017-Sep-21 11:29N 33°44' W 118°09'0 0.0
2017-Sep-21 10:50N 33°44' W 118°09'0 0.0
2017-Sep-21 10:17N 33°44' W 118°09'0 0.0
2017-Sep-21 09:59N 33°44' W 118°09'0 0.1
2017-Sep-21 09:29N 33°44' W 118°09'0 0.0
2017-Sep-21 08:59N 33°44' W 118°09'0 0.0
2017-Sep-21 08:29N 33°44' W 118°09'0 0.1
2017-Sep-21 07:53N 33°44' W 118°09'0 0.1
2017-Sep-21 07:26N 33°44' W 118°09'0 0.1
2017-Sep-21 06:47N 33°44' W 118°09'0 0.0
2017-Sep-21 06:23N 33°44' W 118°09'0 0.1
2017-Sep-21 05:53N 33°44' W 118°09'0 0.0
2017-Sep-21 05:29N 33°44' W 118°09'0 0.2
2017-Sep-21 04:59N 33°44' W 118°09'0 0.0
2017-Sep-21 04:29N 33°44' W 118°09'0 0.0
2017-Sep-21 03:53N 33°44' W 118°09'0 0.0
2017-Sep-21 03:29N 33°44' W 118°09'0 0.1
2017-Sep-21 02:59N 33°44' W 118°09'0 0.1
2017-Sep-21 02:29N 33°44' W 118°09'0 0.0
2017-Sep-21 01:59N 33°44' W 118°09'0 0.0
2017-Sep-21 01:29N 33°44' W 118°09'0 0.0
2017-Sep-21 00:53N 33°44' W 118°09'0 0.1
2017-Sep-21 00:29N 33°44' W 118°09'0 0.0
2017-Sep-20 23:59N 33°44' W 118°09'0 0.0
2017-Sep-20 23:29N 33°44' W 118°09'0 0.0
2017-Sep-20 22:59N 33°44' W 118°09'0 0.0
2017-Sep-20 22:23N 33°44' W 118°09'0 0.0
2017-Sep-20 21:50N 33°44' W 118°09'0 0.0
2017-Sep-20 21:29N 33°44' W 118°09'0 0.0
2017-Sep-20 20:53N 33°44' W 118°09'0 0.0
2017-Sep-20 20:29N 33°44' W 118°09'0 0.0
2017-Sep-20 19:59N 33°44' W 118°09'0 0.0
2017-Sep-20 19:23N 33°44' W 118°09'0 0.1
2017-Sep-20 18:59N 33°44' W 118°09'0 0.0
2017-Sep-20 18:29N 33°44' W 118°09'0 0.0
2017-Sep-20 17:59N 33°44' W 118°09'0 0.1
2017-Sep-20 17:29N 33°44' W 118°09'0 0.1
2017-Sep-20 16:59N 33°44' W 118°09'0 0.1
2017-Sep-20 16:29N 33°44' W 118°09'0 0.1
2017-Sep-20 15:59N 33°44' W 118°09'0 0.1
2017-Sep-20 12:11N 33°44' W 118°09'0 0.1
2017-Sep-20 11:53N 33°44' W 118°09'0 0.1
2017-Sep-20 11:17N 33°44' W 118°09'0 0.0
2017-Sep-20 10:59N 33°44' W 118°09'0 0.1
2017-Sep-20 10:23N 33°44' W 118°09'0 0.0
2017-Sep-20 09:53N 33°44' W 118°09'0 0.1
2017-Sep-20 09:29N 33°44' W 118°09'0 0.1
2017-Sep-20 08:59N 33°44' W 118°09'0 0.1
2017-Sep-20 08:29N 33°44' W 118°09'0 0.1
2017-Sep-20 07:59N 33°44' W 118°09'0 0.1
2017-Sep-20 07:26N 33°44' W 118°09'0 0.0
2017-Sep-20 06:56N 33°44' W 118°09'2 3.6
2017-Sep-20 06:30N 33°44' W 118°11'4 7.6
2017-Sep-20 06:00N 33°43' W 118°16'2 5.0
2017-Sep-20 05:30N 33°45' W 118°16'0 0.2
2017-Sep-20 03:37N 33°46' W 118°16'0 0.0
2017-Sep-20 01:31N 33°46' W 118°16'0 0.1
2017-Sep-20 01:25N 33°46' W 118°16'0 0.0
2017-Sep-20 00:31N 33°46' W 118°16'0 0.0
2017-Sep-20 00:19N 33°46' W 118°16'0 0.0
2017-Sep-19 23:55N 33°46' W 118°16'0 0.0
2017-Sep-19 23:13N 33°46' W 118°16'0 0.0
2017-Sep-19 22:25N 33°46' W 118°16'0 0.0
2017-Sep-19 21:07N 33°46' W 118°16'0 0.0
2017-Sep-19 20:55N 33°46' W 118°16'0 0.0
2017-Sep-19 20:25N 33°46' W 118°16'0 0.0
2017-Sep-19 18:07N 33°46' W 118°16'  

Dump ship's entire track history